sensor_id;sensor_type;location;lat;lon;timestamp;P1;durP1;ratioP1;P2;durP2;ratioP2
51618;SDS011;38518;53.164;5.430;2023-04-15T00:00:15;12.02;;;6.30;;
51618;SDS011;38518;53.164;5.430;2023-04-15T00:02:41;10.48;;;6.28;;
51618;SDS011;38518;53.164;5.430;2023-04-15T00:05:08;13.07;;;7.20;;
51618;SDS011;38518;53.164;5.430;2023-04-15T00:07:34;9.82;;;7.13;;
51618;SDS011;38518;53.164;5.430;2023-04-15T00:10:00;11.95;;;6.45;;
51618;SDS011;38518;53.164;5.430;2023-04-15T00:12:26;10.80;;;6.07;;
51618;SDS011;38518;53.164;5.430;2023-04-15T00:14:52;11.20;;;6.50;;
51618;SDS011;38518;53.164;5.430;2023-04-15T00:17:18;10.70;;;6.53;;
51618;SDS011;38518;53.164;5.430;2023-04-15T00:19:45;9.52;;;6.32;;
51618;SDS011;38518;53.164;5.430;2023-04-15T00:22:11;10.73;;;6.90;;
51618;SDS011;38518;53.164;5.430;2023-04-15T00:24:37;8.32;;;5.68;;
51618;SDS011;38518;53.164;5.430;2023-04-15T00:27:03;12.20;;;6.80;;
51618;SDS011;38518;53.164;5.430;2023-04-15T00:29:29;10.10;;;6.13;;
51618;SDS011;38518;53.164;5.430;2023-04-15T00:31:55;11.20;;;7.30;;
51618;SDS011;38518;53.164;5.430;2023-04-15T00:34:22;9.80;;;6.45;;
51618;SDS011;38518;53.164;5.430;2023-04-15T00:36:48;8.48;;;5.75;;
51618;SDS011;38518;53.164;5.430;2023-04-15T00:39:15;11.73;;;7.68;;
51618;SDS011;38518;53.164;5.430;2023-04-15T00:41:41;10.95;;;7.43;;
51618;SDS011;38518;53.164;5.430;2023-04-15T00:44:08;10.52;;;7.07;;
51618;SDS011;38518;53.164;5.430;2023-04-15T00:46:34;12.60;;;6.90;;
51618;SDS011;38518;53.164;5.430;2023-04-15T00:49:04;12.40;;;6.85;;
51618;SDS011;38518;53.164;5.430;2023-04-15T00:51:31;10.43;;;7.20;;
51618;SDS011;38518;53.164;5.430;2023-04-15T00:54:00;10.63;;;7.47;;
51618;SDS011;38518;53.164;5.430;2023-04-15T00:56:30;9.70;;;7.55;;
51618;SDS011;38518;53.164;5.430;2023-04-15T00:58:59;12.43;;;7.10;;
51618;SDS011;38518;53.164;5.430;2023-04-15T01:01:26;13.98;;;7.35;;
51618;SDS011;38518;53.164;5.430;2023-04-15T01:03:53;13.50;;;7.05;;
51618;SDS011;38518;53.164;5.430;2023-04-15T01:06:21;11.20;;;7.47;;
51618;SDS011;38518;53.164;5.430;2023-04-15T01:08:47;11.15;;;7.53;;
51618;SDS011;38518;53.164;5.430;2023-04-15T01:11:13;11.68;;;6.95;;
51618;SDS011;38518;53.164;5.430;2023-04-15T01:13:40;10.02;;;7.47;;
51618;SDS011;38518;53.164;5.430;2023-04-15T01:16:06;11.77;;;6.72;;
51618;SDS011;38518;53.164;5.430;2023-04-15T01:18:33;10.18;;;7.57;;
51618;SDS011;38518;53.164;5.430;2023-04-15T01:21:01;13.40;;;8.50;;
51618;SDS011;38518;53.164;5.430;2023-04-15T01:23:29;13.25;;;8.38;;
51618;SDS011;38518;53.164;5.430;2023-04-15T01:25:55;14.32;;;8.02;;
51618;SDS011;38518;53.164;5.430;2023-04-15T01:28:21;14.23;;;8.23;;
51618;SDS011;38518;53.164;5.430;2023-04-15T01:30:47;11.93;;;8.10;;
51618;SDS011;38518;53.164;5.430;2023-04-15T01:33:13;11.15;;;7.45;;
51618;SDS011;38518;53.164;5.430;2023-04-15T01:35:39;17.20;;;8.45;;
51618;SDS011;38518;53.164;5.430;2023-04-15T01:38:06;13.38;;;8.93;;
51618;SDS011;38518;53.164;5.430;2023-04-15T01:40:33;12.45;;;7.00;;
51618;SDS011;38518;53.164;5.430;2023-04-15T01:43:00;13.13;;;8.00;;
51618;SDS011;38518;53.164;5.430;2023-04-15T01:45:26;16.73;;;9.93;;
51618;SDS011;38518;53.164;5.430;2023-04-15T01:47:52;16.20;;;8.65;;
51618;SDS011;38518;53.164;5.430;2023-04-15T01:50:18;14.35;;;9.75;;
51618;SDS011;38518;53.164;5.430;2023-04-15T01:52:44;14.30;;;10.43;;
51618;SDS011;38518;53.164;5.430;2023-04-15T01:55:11;13.32;;;10.00;;
51618;SDS011;38518;53.164;5.430;2023-04-15T01:57:38;13.80;;;10.13;;
51618;SDS011;38518;53.164;5.430;2023-04-15T02:00:04;15.75;;;10.30;;
51618;SDS011;38518;53.164;5.430;2023-04-15T02:02:32;17.30;;;9.13;;
51618;SDS011;38518;53.164;5.430;2023-04-15T02:04:58;13.63;;;10.93;;
51618;SDS011;38518;53.164;5.430;2023-04-15T02:07:24;16.10;;;9.45;;
51618;SDS011;38518;53.164;5.430;2023-04-15T02:09:50;15.18;;;9.27;;
51618;SDS011;38518;53.164;5.430;2023-04-15T02:12:16;14.27;;;9.18;;
51618;SDS011;38518;53.164;5.430;2023-04-15T02:14:42;14.93;;;11.43;;
51618;SDS011;38518;53.164;5.430;2023-04-15T02:17:07;15.93;;;12.13;;
51618;SDS011;38518;53.164;5.430;2023-04-15T02:19:33;17.73;;;11.73;;
51618;SDS011;38518;53.164;5.430;2023-04-15T02:21:59;17.05;;;12.35;;
51618;SDS011;38518;53.164;5.430;2023-04-15T02:24:26;15.57;;;11.85;;
51618;SDS011;38518;53.164;5.430;2023-04-15T02:26:53;18.42;;;10.73;;
51618;SDS011;38518;53.164;5.430;2023-04-15T02:29:18;18.77;;;13.40;;
51618;SDS011;38518;53.164;5.430;2023-04-15T02:31:44;17.75;;;11.98;;
51618;SDS011;38518;53.164;5.430;2023-04-15T02:34:10;16.55;;;11.38;;
51618;SDS011;38518;53.164;5.430;2023-04-15T02:36:35;21.02;;;11.88;;
51618;SDS011;38518;53.164;5.430;2023-04-15T02:39:01;17.08;;;13.70;;
51618;SDS011;38518;53.164;5.430;2023-04-15T02:41:28;16.20;;;13.38;;
51618;SDS011;38518;53.164;5.430;2023-04-15T02:43:54;17.48;;;14.13;;
51618;SDS011;38518;53.164;5.430;2023-04-15T02:46:20;16.73;;;12.85;;
51618;SDS011;38518;53.164;5.430;2023-04-15T02:48:47;21.30;;;15.85;;
51618;SDS011;38518;53.164;5.430;2023-04-15T02:51:17;16.92;;;15.02;;
51618;SDS011;38518;53.164;5.430;2023-04-15T02:53:45;19.00;;;12.60;;
51618;SDS011;38518;53.164;5.430;2023-04-15T02:56:12;18.88;;;12.57;;
51618;SDS011;38518;53.164;5.430;2023-04-15T02:58:39;16.40;;;14.60;;
51618;SDS011;38518;53.164;5.430;2023-04-15T03:01:06;17.48;;;14.38;;
51618;SDS011;38518;53.164;5.430;2023-04-15T03:03:33;18.90;;;15.88;;
51618;SDS011;38518;53.164;5.430;2023-04-15T03:05:59;18.73;;;15.15;;
51618;SDS011;38518;53.164;5.430;2023-04-15T03:08:25;21.63;;;15.00;;
51618;SDS011;38518;53.164;5.430;2023-04-15T03:10:51;19.10;;;15.43;;
51618;SDS011;38518;53.164;5.430;2023-04-15T03:13:18;20.25;;;15.85;;
51618;SDS011;38518;53.164;5.430;2023-04-15T03:15:47;18.00;;;15.75;;
51618;SDS011;38518;53.164;5.430;2023-04-15T03:18:13;22.23;;;14.25;;
51618;SDS011;38518;53.164;5.430;2023-04-15T03:20:39;21.42;;;15.85;;
51618;SDS011;38518;53.164;5.430;2023-04-15T03:23:04;17.98;;;16.02;;
51618;SDS011;38518;53.164;5.430;2023-04-15T03:25:30;20.63;;;16.60;;
51618;SDS011;38518;53.164;5.430;2023-04-15T03:27:56;20.75;;;14.82;;
51618;SDS011;38518;53.164;5.430;2023-04-15T03:30:22;18.25;;;13.35;;
51618;SDS011;38518;53.164;5.430;2023-04-15T03:32:48;19.05;;;16.73;;
51618;SDS011;38518;53.164;5.430;2023-04-15T03:35:13;18.98;;;16.88;;
51618;SDS011;38518;53.164;5.430;2023-04-15T03:37:39;21.25;;;16.90;;
51618;SDS011;38518;53.164;5.430;2023-04-15T03:40:05;21.98;;;17.55;;
51618;SDS011;38518;53.164;5.430;2023-04-15T03:42:32;20.75;;;14.05;;
51618;SDS011;38518;53.164;5.430;2023-04-15T03:44:58;18.77;;;16.30;;
51618;SDS011;38518;53.164;5.430;2023-04-15T03:47:24;19.00;;;16.25;;
51618;SDS011;38518;53.164;5.430;2023-04-15T03:49:50;19.88;;;16.33;;
51618;SDS011;38518;53.164;5.430;2023-04-15T03:52:16;22.08;;;14.75;;
51618;SDS011;38518;53.164;5.430;2023-04-15T03:54:41;18.65;;;15.88;;
51618;SDS011;38518;53.164;5.430;2023-04-15T03:57:07;19.05;;;13.85;;
51618;SDS011;38518;53.164;5.430;2023-04-15T03:59:33;19.00;;;13.32;;
51618;SDS011;38518;53.164;5.430;2023-04-15T04:01:58;20.48;;;17.13;;
51618;SDS011;38518;53.164;5.430;2023-04-15T04:04:24;19.40;;;15.15;;
51618;SDS011;38518;53.164;5.430;2023-04-15T04:06:50;19.15;;;16.52;;
51618;SDS011;38518;53.164;5.430;2023-04-15T04:09:16;19.10;;;16.15;;
51618;SDS011;38518;53.164;5.430;2023-04-15T04:11:41;20.23;;;16.98;;
51618;SDS011;38518;53.164;5.430;2023-04-15T04:14:07;18.25;;;16.27;;
51618;SDS011;38518;53.164;5.430;2023-04-15T04:16:33;18.52;;;16.30;;
51618;SDS011;38518;53.164;5.430;2023-04-15T04:18:59;19.67;;;13.07;;
51618;SDS011;38518;53.164;5.430;2023-04-15T04:21:24;20.63;;;16.98;;
51618;SDS011;38518;53.164;5.430;2023-04-15T04:23:50;19.55;;;16.98;;
51618;SDS011;38518;53.164;5.430;2023-04-15T04:26:16;19.95;;;14.13;;
51618;SDS011;38518;53.164;5.430;2023-04-15T04:28:42;19.33;;;16.15;;
51618;SDS011;38518;53.164;5.430;2023-04-15T04:31:07;18.85;;;16.85;;
51618;SDS011;38518;53.164;5.430;2023-04-15T04:33:33;19.77;;;17.50;;
51618;SDS011;38518;53.164;5.430;2023-04-15T04:35:59;19.95;;;14.98;;
51618;SDS011;38518;53.164;5.430;2023-04-15T04:38:25;23.23;;;14.85;;
51618;SDS011;38518;53.164;5.430;2023-04-15T04:40:51;20.35;;;16.88;;
51618;SDS011;38518;53.164;5.430;2023-04-15T04:43:16;20.58;;;17.75;;
51618;SDS011;38518;53.164;5.430;2023-04-15T04:45:42;21.27;;;18.65;;
51618;SDS011;38518;53.164;5.430;2023-04-15T04:48:08;22.27;;;15.60;;
51618;SDS011;38518;53.164;5.430;2023-04-15T04:50:34;21.13;;;18.23;;
51618;SDS011;38518;53.164;5.430;2023-04-15T04:53:00;21.88;;;15.98;;
51618;SDS011;38518;53.164;5.430;2023-04-15T04:55:26;19.15;;;16.95;;
51618;SDS011;38518;53.164;5.430;2023-04-15T04:57:52;20.52;;;14.57;;
51618;SDS011;38518;53.164;5.430;2023-04-15T05:00:18;22.20;;;18.08;;
51618;SDS011;38518;53.164;5.430;2023-04-15T05:02:44;20.40;;;14.55;;
51618;SDS011;38518;53.164;5.430;2023-04-15T05:05:10;20.15;;;18.05;;
51618;SDS011;38518;53.164;5.430;2023-04-15T05:07:37;20.92;;;18.42;;
51618;SDS011;38518;53.164;5.430;2023-04-15T05:10:03;19.10;;;14.38;;
51618;SDS011;38518;53.164;5.430;2023-04-15T05:12:30;19.40;;;17.30;;
51618;SDS011;38518;53.164;5.430;2023-04-15T05:14:56;18.90;;;16.90;;
51618;SDS011;38518;53.164;5.430;2023-04-15T05:17:22;19.20;;;15.05;;
51618;SDS011;38518;53.164;5.430;2023-04-15T05:19:48;19.40;;;17.23;;
51618;SDS011;38518;53.164;5.430;2023-04-15T05:22:13;18.75;;;14.27;;
51618;SDS011;38518;53.164;5.430;2023-04-15T05:24:39;19.92;;;15.05;;
51618;SDS011;38518;53.164;5.430;2023-04-15T05:27:05;20.48;;;15.00;;
51618;SDS011;38518;53.164;5.430;2023-04-15T05:29:32;19.25;;;17.15;;
51618;SDS011;38518;53.164;5.430;2023-04-15T05:31:58;21.50;;;15.23;;
51618;SDS011;38518;53.164;5.430;2023-04-15T05:34:25;19.48;;;17.38;;
51618;SDS011;38518;53.164;5.430;2023-04-15T05:36:51;19.65;;;15.88;;
51618;SDS011;38518;53.164;5.430;2023-04-15T05:39:16;20.55;;;15.18;;
51618;SDS011;38518;53.164;5.430;2023-04-15T05:41:43;19.23;;;17.30;;
51618;SDS011;38518;53.164;5.430;2023-04-15T05:44:09;24.25;;;16.02;;
51618;SDS011;38518;53.164;5.430;2023-04-15T05:46:34;22.08;;;15.25;;
51618;SDS011;38518;53.164;5.430;2023-04-15T05:49:00;21.88;;;17.88;;
51618;SDS011;38518;53.164;5.430;2023-04-15T05:51:26;21.92;;;16.27;;
51618;SDS011;38518;53.164;5.430;2023-04-15T05:53:52;19.85;;;17.33;;
51618;SDS011;38518;53.164;5.430;2023-04-15T05:56:17;18.08;;;16.17;;
51618;SDS011;38518;53.164;5.430;2023-04-15T05:58:44;18.95;;;15.82;;
51618;SDS011;38518;53.164;5.430;2023-04-15T06:01:10;16.35;;;14.60;;
51618;SDS011;38518;53.164;5.430;2023-04-15T06:03:36;15.82;;;13.63;;
51618;SDS011;38518;53.164;5.430;2023-04-15T06:06:02;14.40;;;12.90;;
51618;SDS011;38518;53.164;5.430;2023-04-15T06:08:31;15.77;;;13.70;;
51618;SDS011;38518;53.164;5.430;2023-04-15T06:10:57;13.95;;;12.55;;
51618;SDS011;38518;53.164;5.430;2023-04-15T06:13:23;14.45;;;12.30;;
51618;SDS011;38518;53.164;5.430;2023-04-15T06:15:49;13.07;;;11.60;;
51618;SDS011;38518;53.164;5.430;2023-04-15T06:18:15;13.50;;;12.10;;
51618;SDS011;38518;53.164;5.430;2023-04-15T06:20:40;12.48;;;10.55;;
51618;SDS011;38518;53.164;5.430;2023-04-15T06:23:06;11.57;;;10.35;;
51618;SDS011;38518;53.164;5.430;2023-04-15T06:25:32;10.02;;;8.98;;
51618;SDS011;38518;53.164;5.430;2023-04-15T06:27:57;9.65;;;8.73;;
51618;SDS011;38518;53.164;5.430;2023-04-15T06:30:23;10.52;;;9.32;;
51618;SDS011;38518;53.164;5.430;2023-04-15T06:32:49;11.50;;;8.40;;
51618;SDS011;38518;53.164;5.430;2023-04-15T06:35:15;10.63;;;7.82;;
51618;SDS011;38518;53.164;5.430;2023-04-15T06:37:40;9.95;;;8.45;;
51618;SDS011;38518;53.164;5.430;2023-04-15T06:40:06;9.32;;;8.15;;
51618;SDS011;38518;53.164;5.430;2023-04-15T06:42:34;8.88;;;7.97;;
51618;SDS011;38518;53.164;5.430;2023-04-15T06:45:01;8.70;;;7.38;;
51618;SDS011;38518;53.164;5.430;2023-04-15T06:47:26;10.95;;;8.63;;
51618;SDS011;38518;53.164;5.430;2023-04-15T06:49:52;8.13;;;7.30;;
51618;SDS011;38518;53.164;5.430;2023-04-15T06:52:18;9.63;;;7.68;;
51618;SDS011;38518;53.164;5.430;2023-04-15T06:54:44;7.95;;;6.90;;
51618;SDS011;38518;53.164;5.430;2023-04-15T06:57:09;8.98;;;7.10;;
51618;SDS011;38518;53.164;5.430;2023-04-15T06:59:35;8.68;;;7.47;;
51618;SDS011;38518;53.164;5.430;2023-04-15T07:02:01;8.32;;;7.18;;
51618;SDS011;38518;53.164;5.430;2023-04-15T07:04:27;9.35;;;8.45;;
51618;SDS011;38518;53.164;5.430;2023-04-15T07:06:53;9.88;;;8.30;;
51618;SDS011;38518;53.164;5.430;2023-04-15T07:09:20;10.85;;;8.95;;
51618;SDS011;38518;53.164;5.430;2023-04-15T07:11:46;10.13;;;9.07;;
51618;SDS011;38518;53.164;5.430;2023-04-15T07:14:12;10.27;;;9.10;;
51618;SDS011;38518;53.164;5.430;2023-04-15T07:16:38;12.90;;;10.07;;
51618;SDS011;38518;53.164;5.430;2023-04-15T07:19:04;10.75;;;9.65;;
51618;SDS011;38518;53.164;5.430;2023-04-15T07:21:30;12.88;;;9.50;;
51618;SDS011;38518;53.164;5.430;2023-04-15T07:23:56;11.00;;;9.52;;
51618;SDS011;38518;53.164;5.430;2023-04-15T07:26:22;11.85;;;10.13;;
51618;SDS011;38518;53.164;5.430;2023-04-15T07:28:48;13.45;;;9.82;;
51618;SDS011;38518;53.164;5.430;2023-04-15T07:31:14;11.20;;;10.02;;
51618;SDS011;38518;53.164;5.430;2023-04-15T07:33:41;12.95;;;10.57;;
51618;SDS011;38518;53.164;5.430;2023-04-15T07:36:10;11.95;;;10.77;;
51618;SDS011;38518;53.164;5.430;2023-04-15T07:38:37;11.57;;;10.38;;
51618;SDS011;38518;53.164;5.430;2023-04-15T07:41:03;13.05;;;11.68;;
51618;SDS011;38518;53.164;5.430;2023-04-15T07:43:29;13.05;;;11.75;;
51618;SDS011;38518;53.164;5.430;2023-04-15T07:45:55;13.13;;;11.73;;
51618;SDS011;38518;53.164;5.430;2023-04-15T07:48:20;12.23;;;11.02;;
51618;SDS011;38518;53.164;5.430;2023-04-15T07:50:46;11.57;;;10.48;;
51618;SDS011;38518;53.164;5.430;2023-04-15T07:53:12;13.57;;;10.63;;
51618;SDS011;38518;53.164;5.430;2023-04-15T07:55:38;10.85;;;9.30;;
51618;SDS011;38518;53.164;5.430;2023-04-15T07:58:04;11.55;;;10.32;;
51618;SDS011;38518;53.164;5.430;2023-04-15T08:00:30;11.95;;;9.93;;
51618;SDS011;38518;53.164;5.430;2023-04-15T08:02:56;11.63;;;9.90;;
51618;SDS011;38518;53.164;5.430;2023-04-15T08:05:23;13.60;;;10.45;;
51618;SDS011;38518;53.164;5.430;2023-04-15T08:07:49;12.85;;;10.60;;
51618;SDS011;38518;53.164;5.430;2023-04-15T08:10:15;11.60;;;9.85;;
51618;SDS011;38518;53.164;5.430;2023-04-15T08:12:41;10.75;;;9.30;;
51618;SDS011;38518;53.164;5.430;2023-04-15T08:15:07;10.75;;;9.02;;
51618;SDS011;38518;53.164;5.430;2023-04-15T08:17:33;10.60;;;8.43;;
51618;SDS011;38518;53.164;5.430;2023-04-15T08:19:59;10.48;;;8.60;;
51618;SDS011;38518;53.164;5.430;2023-04-15T08:22:25;8.77;;;7.53;;
51618;SDS011;38518;53.164;5.430;2023-04-15T08:24:51;9.85;;;7.47;;
51618;SDS011;38518;53.164;5.430;2023-04-15T08:27:17;8.27;;;7.22;;
51618;SDS011;38518;53.164;5.430;2023-04-15T08:29:43;8.85;;;7.07;;
51618;SDS011;38518;53.164;5.430;2023-04-15T08:32:09;7.85;;;6.65;;
51618;SDS011;38518;53.164;5.430;2023-04-15T08:34:35;7.55;;;6.78;;
51618;SDS011;38518;53.164;5.430;2023-04-15T08:37:01;8.95;;;7.00;;
51618;SDS011;38518;53.164;5.430;2023-04-15T08:39:27;7.80;;;6.95;;
51618;SDS011;38518;53.164;5.430;2023-04-15T08:42:00;7.68;;;6.78;;
51618;SDS011;38518;53.164;5.430;2023-04-15T08:44:32;9.52;;;7.13;;
51618;SDS011;38518;53.164;5.430;2023-04-15T08:47:01;7.53;;;6.72;;
51618;SDS011;38518;53.164;5.430;2023-04-15T08:49:31;7.70;;;6.40;;
51618;SDS011;38518;53.164;5.430;2023-04-15T08:51:59;8.93;;;6.75;;
51618;SDS011;38518;53.164;5.430;2023-04-15T08:54:27;8.70;;;6.57;;
51618;SDS011;38518;53.164;5.430;2023-04-15T08:56:53;9.05;;;6.47;;
51618;SDS011;38518;53.164;5.430;2023-04-15T08:59:20;8.63;;;6.28;;
51618;SDS011;38518;53.164;5.430;2023-04-15T09:01:46;8.60;;;6.15;;
51618;SDS011;38518;53.164;5.430;2023-04-15T09:04:14;7.60;;;6.25;;
51618;SDS011;38518;53.164;5.430;2023-04-15T09:06:41;7.57;;;6.10;;
51618;SDS011;38518;53.164;5.430;2023-04-15T09:09:07;7.60;;;6.20;;
51618;SDS011;38518;53.164;5.430;2023-04-15T09:11:32;7.63;;;6.53;;
51618;SDS011;38518;53.164;5.430;2023-04-15T09:13:58;7.63;;;6.80;;
51618;SDS011;38518;53.164;5.430;2023-04-15T09:16:24;8.35;;;6.00;;
51618;SDS011;38518;53.164;5.430;2023-04-15T09:18:50;6.60;;;5.43;;
51618;SDS011;38518;53.164;5.430;2023-04-15T09:21:16;7.55;;;5.93;;
51618;SDS011;38518;53.164;5.430;2023-04-15T09:23:55;7.65;;;6.30;;
51618;SDS011;38518;53.164;5.430;2023-04-15T09:26:35;9.20;;;5.65;;
51618;SDS011;38518;53.164;5.430;2023-04-15T09:29:03;6.85;;;5.55;;
51618;SDS011;38518;53.164;5.430;2023-04-15T09:31:30;8.35;;;6.20;;
51618;SDS011;38518;53.164;5.430;2023-04-15T09:33:57;7.93;;;5.68;;
51618;SDS011;38518;53.164;5.430;2023-04-15T09:36:23;7.50;;;5.75;;
51618;SDS011;38518;53.164;5.430;2023-04-15T09:38:57;8.65;;;6.13;;
51618;SDS011;38518;53.164;5.430;2023-04-15T09:41:26;7.60;;;5.70;;
51618;SDS011;38518;53.164;5.430;2023-04-15T09:43:52;6.35;;;5.20;;
51618;SDS011;38518;53.164;5.430;2023-04-15T09:46:39;14.13;;;6.05;;
51618;SDS011;38518;53.164;5.430;2023-04-15T09:49:08;10.18;;;5.75;;
51618;SDS011;38518;53.164;5.430;2023-04-15T09:51:35;23.80;;;6.28;;
51618;SDS011;38518;53.164;5.430;2023-04-15T09:54:02;11.23;;;5.38;;
51618;SDS011;38518;53.164;5.430;2023-04-15T09:56:35;6.60;;;4.72;;
51618;SDS011;38518;53.164;5.430;2023-04-15T09:59:03;5.45;;;4.47;;
51618;SDS011;38518;53.164;5.430;2023-04-15T10:01:30;6.93;;;5.15;;
51618;SDS011;38518;53.164;5.430;2023-04-15T10:03:56;7.25;;;4.30;;
51618;SDS011;38518;53.164;5.430;2023-04-15T10:06:24;6.47;;;4.47;;
51618;SDS011;38518;53.164;5.430;2023-04-15T10:08:51;7.22;;;4.38;;
51618;SDS011;38518;53.164;5.430;2023-04-15T10:11:18;6.25;;;3.78;;
51618;SDS011;38518;53.164;5.430;2023-04-15T10:13:45;5.07;;;3.60;;
51618;SDS011;38518;53.164;5.430;2023-04-15T10:16:18;5.97;;;3.55;;
51618;SDS011;38518;53.164;5.430;2023-04-15T10:18:46;5.00;;;4.32;;
51618;SDS011;38518;53.164;5.430;2023-04-15T10:21:14;5.20;;;4.00;;
51618;SDS011;38518;53.164;5.430;2023-04-15T10:23:45;5.03;;;3.40;;
51618;SDS011;38518;53.164;5.430;2023-04-15T10:26:11;7.68;;;3.83;;
51618;SDS011;38518;53.164;5.430;2023-04-15T10:28:41;6.82;;;3.50;;
51618;SDS011;38518;53.164;5.430;2023-04-15T10:31:07;5.70;;;3.00;;
51618;SDS011;38518;53.164;5.430;2023-04-15T10:33:35;5.70;;;3.25;;
51618;SDS011;38518;53.164;5.430;2023-04-15T10:36:02;5.85;;;3.40;;
51618;SDS011;38518;53.164;5.430;2023-04-15T10:46:34;4.68;;;2.83;;
51618;SDS011;38518;53.164;5.430;2023-04-15T10:49:08;5.80;;;2.40;;
51618;SDS011;38518;53.164;5.430;2023-04-15T10:51:37;4.32;;;2.42;;
51618;SDS011;38518;53.164;5.430;2023-04-15T10:54:13;6.15;;;2.72;;
51618;SDS011;38518;53.164;5.430;2023-04-15T10:56:43;6.28;;;2.80;;
51618;SDS011;38518;53.164;5.430;2023-04-15T10:59:13;4.38;;;2.60;;
51618;SDS011;38518;53.164;5.430;2023-04-15T11:12:51;4.93;;;1.90;;
51618;SDS011;38518;53.164;5.430;2023-04-15T11:15:28;6.95;;;2.20;;
51618;SDS011;38518;53.164;5.430;2023-04-15T11:17:58;3.35;;;2.08;;
51618;SDS011;38518;53.164;5.430;2023-04-15T11:20:35;3.38;;;1.70;;
51618;SDS011;38518;53.164;5.430;2023-04-15T11:23:03;3.85;;;1.80;;
51618;SDS011;38518;53.164;5.430;2023-04-15T11:25:31;3.45;;;1.77;;
51618;SDS011;38518;53.164;5.430;2023-04-15T11:27:58;3.85;;;1.80;;
51618;SDS011;38518;53.164;5.430;2023-04-15T11:30:26;4.22;;;1.70;;
51618;SDS011;38518;53.164;5.430;2023-04-15T11:32:55;4.47;;;2.05;;
51618;SDS011;38518;53.164;5.430;2023-04-15T11:35:23;7.55;;;2.35;;
51618;SDS011;38518;53.164;5.430;2023-04-15T11:37:49;6.68;;;1.88;;
51618;SDS011;38518;53.164;5.430;2023-04-15T11:40:15;3.13;;;1.90;;
51618;SDS011;38518;53.164;5.430;2023-04-15T11:42:46;3.72;;;1.95;;
51618;SDS011;38518;53.164;5.430;2023-04-15T11:45:27;5.07;;;2.28;;
51618;SDS011;38518;53.164;5.430;2023-04-15T11:47:53;4.90;;;1.95;;
51618;SDS011;38518;53.164;5.430;2023-04-15T11:50:19;4.70;;;1.90;;
51618;SDS011;38518;53.164;5.430;2023-04-15T11:52:56;3.85;;;2.25;;
51618;SDS011;38518;53.164;5.430;2023-04-15T11:55:23;8.23;;;2.38;;
51618;SDS011;38518;53.164;5.430;2023-04-15T11:58:04;5.90;;;2.53;;
51618;SDS011;38518;53.164;5.430;2023-04-15T12:00:32;6.28;;;2.50;;
51618;SDS011;38518;53.164;5.430;2023-04-15T12:03:11;6.38;;;2.30;;
51618;SDS011;38518;53.164;5.430;2023-04-15T12:13:46;6.88;;;2.10;;
51618;SDS011;38518;53.164;5.430;2023-04-15T12:16:20;5.30;;;2.00;;
51618;SDS011;38518;53.164;5.430;2023-04-15T12:18:46;6.68;;;2.10;;
51618;SDS011;38518;53.164;5.430;2023-04-15T12:21:20;5.85;;;2.20;;
51618;SDS011;38518;53.164;5.430;2023-04-15T12:23:53;7.55;;;2.08;;
51618;SDS011;38518;53.164;5.430;2023-04-15T12:26:27;5.18;;;1.75;;
51618;SDS011;38518;53.164;5.430;2023-04-15T12:29:04;7.25;;;2.20;;
51618;SDS011;38518;53.164;5.430;2023-04-15T12:31:32;5.63;;;1.75;;
51618;SDS011;38518;53.164;5.430;2023-04-15T12:34:02;7.60;;;1.98;;
51618;SDS011;38518;53.164;5.430;2023-04-15T12:36:29;10.18;;;2.90;;
51618;SDS011;38518;53.164;5.430;2023-04-15T12:39:00;13.20;;;3.55;;
51618;SDS011;38518;53.164;5.430;2023-04-15T12:41:27;8.00;;;2.30;;
51618;SDS011;38518;53.164;5.430;2023-04-15T12:43:53;10.50;;;2.58;;
51618;SDS011;38518;53.164;5.430;2023-04-15T12:46:19;9.38;;;2.33;;
51618;SDS011;38518;53.164;5.430;2023-04-15T12:48:45;9.27;;;2.55;;
51618;SDS011;38518;53.164;5.430;2023-04-15T12:51:12;8.63;;;2.60;;
51618;SDS011;38518;53.164;5.430;2023-04-15T12:53:38;9.52;;;2.10;;
51618;SDS011;38518;53.164;5.430;2023-04-15T12:56:04;7.25;;;1.67;;
51618;SDS011;38518;53.164;5.430;2023-04-15T12:58:30;6.15;;;2.28;;
51618;SDS011;38518;53.164;5.430;2023-04-15T13:00:57;9.10;;;1.90;;
51618;SDS011;38518;53.164;5.430;2023-04-15T13:03:23;8.35;;;2.17;;
51618;SDS011;38518;53.164;5.430;2023-04-15T13:05:49;6.82;;;1.95;;
51618;SDS011;38518;53.164;5.430;2023-04-15T13:08:15;11.30;;;2.55;;
51618;SDS011;38518;53.164;5.430;2023-04-15T13:10:41;8.70;;;2.28;;
51618;SDS011;38518;53.164;5.430;2023-04-15T13:13:07;11.88;;;2.47;;
51618;SDS011;38518;53.164;5.430;2023-04-15T13:15:33;7.95;;;2.38;;
51618;SDS011;38518;53.164;5.430;2023-04-15T13:17:59;10.25;;;2.20;;
51618;SDS011;38518;53.164;5.430;2023-04-15T13:20:25;7.72;;;2.35;;
51618;SDS011;38518;53.164;5.430;2023-04-15T13:22:52;13.85;;;2.40;;
51618;SDS011;38518;53.164;5.430;2023-04-15T13:25:18;9.70;;;2.97;;
51618;SDS011;38518;53.164;5.430;2023-04-15T13:27:44;7.88;;;2.20;;
51618;SDS011;38518;53.164;5.430;2023-04-15T13:30:10;11.13;;;2.65;;
51618;SDS011;38518;53.164;5.430;2023-04-15T13:32:37;5.80;;;2.10;;
51618;SDS011;38518;53.164;5.430;2023-04-15T13:35:02;10.48;;;2.15;;
51618;SDS011;38518;53.164;5.430;2023-04-15T13:37:29;10.23;;;2.67;;
51618;SDS011;38518;53.164;5.430;2023-04-15T13:39:55;10.00;;;2.08;;
51618;SDS011;38518;53.164;5.430;2023-04-15T13:42:21;10.82;;;2.53;;
51618;SDS011;38518;53.164;5.430;2023-04-15T13:44:50;10.55;;;2.55;;
51618;SDS011;38518;53.164;5.430;2023-04-15T13:47:17;10.15;;;2.40;;
51618;SDS011;38518;53.164;5.430;2023-04-15T13:49:44;7.05;;;2.10;;
51618;SDS011;38518;53.164;5.430;2023-04-15T13:52:10;8.80;;;2.40;;
51618;SDS011;38518;53.164;5.430;2023-04-15T13:54:36;8.75;;;2.10;;
51618;SDS011;38518;53.164;5.430;2023-04-15T13:57:02;7.05;;;1.95;;
51618;SDS011;38518;53.164;5.430;2023-04-15T13:59:30;7.03;;;2.20;;
51618;SDS011;38518;53.164;5.430;2023-04-15T14:01:57;9.35;;;2.10;;
51618;SDS011;38518;53.164;5.430;2023-04-15T14:04:22;16.20;;;2.78;;
51618;SDS011;38518;53.164;5.430;2023-04-15T14:06:48;8.02;;;1.90;;
51618;SDS011;38518;53.164;5.430;2023-04-15T14:09:14;9.57;;;2.10;;
51618;SDS011;38518;53.164;5.430;2023-04-15T14:11:40;9.15;;;1.95;;
51618;SDS011;38518;53.164;5.430;2023-04-15T14:14:06;6.05;;;2.20;;
51618;SDS011;38518;53.164;5.430;2023-04-15T14:16:32;8.90;;;2.17;;
51618;SDS011;38518;53.164;5.430;2023-04-15T14:18:58;7.57;;;2.20;;
51618;SDS011;38518;53.164;5.430;2023-04-15T14:21:24;8.90;;;2.20;;
51618;SDS011;38518;53.164;5.430;2023-04-15T14:23:54;7.63;;;2.13;;
51618;SDS011;38518;53.164;5.430;2023-04-15T14:26:19;8.93;;;2.63;;
51618;SDS011;38518;53.164;5.430;2023-04-15T14:28:45;9.98;;;3.90;;
51618;SDS011;38518;53.164;5.430;2023-04-15T14:31:12;8.48;;;2.30;;
51618;SDS011;38518;53.164;5.430;2023-04-15T14:33:38;9.05;;;3.08;;
51618;SDS011;38518;53.164;5.430;2023-04-15T14:36:04;7.43;;;2.40;;
51618;SDS011;38518;53.164;5.430;2023-04-15T14:38:32;11.63;;;2.50;;
51618;SDS011;38518;53.164;5.430;2023-04-15T14:41:03;10.30;;;2.33;;
51618;SDS011;38518;53.164;5.430;2023-04-15T14:43:29;7.15;;;1.85;;
51618;SDS011;38518;53.164;5.430;2023-04-15T14:45:54;7.68;;;2.03;;
51618;SDS011;38518;53.164;5.430;2023-04-15T14:48:21;9.30;;;1.90;;
51618;SDS011;38518;53.164;5.430;2023-04-15T14:50:47;11.48;;;2.63;;
51618;SDS011;38518;53.164;5.430;2023-04-15T14:53:13;8.27;;;1.88;;
51618;SDS011;38518;53.164;5.430;2023-04-15T14:55:39;11.65;;;2.25;;
51618;SDS011;38518;53.164;5.430;2023-04-15T14:58:05;13.77;;;2.75;;
51618;SDS011;38518;53.164;5.430;2023-04-15T15:00:32;9.48;;;2.00;;